sensor_id;sensor_type;location;lat;lon;timestamp;pressure;altitude;pressure_sealevel;temperature;humidity
56912;BME280;42800;53.928;27.662;2022-11-27T00:01:46;100536.31;;;-0.09;100.00
56912;BME280;42800;53.928;27.662;2022-11-27T00:04:13;100533.25;;;-0.22;100.00
56912;BME280;42800;53.928;27.662;2022-11-27T00:06:40;100538.72;;;-0.12;100.00
56912;BME280;42800;53.928;27.662;2022-11-27T00:09:09;100535.78;;;-0.06;100.00
56912;BME280;42800;53.928;27.662;2022-11-27T00:11:36;100532.06;;;0.06;100.00
56912;BME280;42800;53.928;27.662;2022-11-27T00:14:05;100527.19;;;0.03;100.00
56912;BME280;42800;53.928;27.662;2022-11-27T00:16:32;100519.91;;;0.03;100.00
56912;BME280;42800;53.928;27.662;2022-11-27T00:18:58;100511.00;;;0.03;100.00
56912;BME280;42800;53.928;27.662;2022-11-27T00:21:27;100505.63;;;0.03;100.00
56912;BME280;42800;53.928;27.662;2022-11-27T00:23:55;100489.44;;;-0.03;100.00
56912;BME280;42800;53.928;27.662;2022-11-27T00:26:22;100479.19;;;-0.01;100.00
56912;BME280;42800;53.928;27.662;2022-11-27T00:28:49;100467.31;;;-0.05;100.00
56912;BME280;42800;53.928;27.662;2022-11-27T00:31:18;100456.22;;;-0.08;100.00
56912;BME280;42800;53.928;27.662;2022-11-27T00:33:45;100461.94;;;0.01;100.00
56912;BME280;42800;53.928;27.662;2022-11-27T00:36:12;100444.38;;;-0.07;100.00
56912;BME280;42800;53.928;27.662;2022-11-27T00:38:40;100444.59;;;-0.19;100.00
56912;BME280;42800;53.928;27.662;2022-11-27T00:41:08;100450.28;;;-0.10;100.00
56912;BME280;42800;53.928;27.662;2022-11-27T00:43:34;100463.00;;;-0.01;100.00
56912;BME280;42800;53.928;27.662;2022-11-27T00:46:01;100454.63;;;-0.04;100.00
56912;BME280;42800;53.928;27.662;2022-11-27T00:48:28;100443.31;;;-0.01;100.00
56912;BME280;42800;53.928;27.662;2022-11-27T00:50:58;100442.47;;;-0.12;100.00
56912;BME280;42800;53.928;27.662;2022-11-27T00:53:25;100452.72;;;-0.09;100.00
56912;BME280;42800;53.928;27.662;2022-11-27T00:55:53;100450.31;;;-0.05;100.00
56912;BME280;42800;53.928;27.662;2022-11-27T00:58:19;100430.50;;;-0.36;100.00
56912;BME280;42800;53.928;27.662;2022-11-27T01:00:46;100455.44;;;-0.09;100.00
56912;BME280;42800;53.928;27.662;2022-11-27T01:03:19;100444.09;;;-0.11;100.00
56912;BME280;42800;53.928;27.662;2022-11-27T01:05:45;100457.59;;;-0.01;100.00
56912;BME280;42800;53.928;27.662;2022-11-27T01:08:11;100424.94;;;-0.19;100.00
56912;BME280;42800;53.928;27.662;2022-11-27T01:10:37;100441.00;;;-0.35;100.00
56912;BME280;42800;53.928;27.662;2022-11-27T01:13:05;100439.75;;;-0.17;100.00
56912;BME280;42800;53.928;27.662;2022-11-27T01:15:31;100434.66;;;-0.13;100.00
56912;BME280;42800;53.928;27.662;2022-11-27T01:17:57;100418.41;;;-0.24;100.00
56912;BME280;42800;53.928;27.662;2022-11-27T01:20:23;100424.97;;;-0.04;100.00
56912;BME280;42800;53.928;27.662;2022-11-27T01:22:50;100426.84;;;-0.10;100.00
56912;BME280;42800;53.928;27.662;2022-11-27T01:25:16;100423.88;;;-0.13;100.00
56912;BME280;42800;53.928;27.662;2022-11-27T01:27:42;100430.06;;;-0.13;100.00
56912;BME280;42800;53.928;27.662;2022-11-27T01:30:10;100420.88;;;-0.22;100.00
56912;BME280;42800;53.928;27.662;2022-11-27T01:32:37;100419.78;;;-0.21;100.00
56912;BME280;42800;53.928;27.662;2022-11-27T01:35:04;100426.50;;;-0.24;100.00
56912;BME280;42800;53.928;27.662;2022-11-27T01:37:30;100417.28;;;-0.38;100.00
56912;BME280;42800;53.928;27.662;2022-11-27T01:39:56;100435.31;;;-0.38;100.00
56912;BME280;42800;53.928;27.662;2022-11-27T01:42:23;100439.69;;;-0.32;100.00
56912;BME280;42800;53.928;27.662;2022-11-27T01:44:53;100424.03;;;-0.35;100.00
56912;BME280;42800;53.928;27.662;2022-11-27T01:47:31;100423.22;;;-0.31;100.00
56912;BME280;42800;53.928;27.662;2022-11-27T01:50:07;100419.69;;;-0.41;100.00
56912;BME280;42800;53.928;27.662;2022-11-27T01:52:36;100433.13;;;-0.46;100.00
56912;BME280;42800;53.928;27.662;2022-11-27T01:55:06;100436.97;;;-0.32;100.00
56912;BME280;42800;53.928;27.662;2022-11-27T01:57:40;100433.44;;;-0.43;100.00
56912;BME280;42800;53.928;27.662;2022-11-27T02:00:11;100436.66;;;-0.41;100.00
56912;BME280;42800;53.928;27.662;2022-11-27T02:02:39;100443.06;;;-0.47;100.00
56912;BME280;42800;53.928;27.662;2022-11-27T02:05:06;100462.78;;;-0.41;100.00
56912;BME280;42800;53.928;27.662;2022-11-27T02:07:33;100457.16;;;-0.40;100.00
56912;BME280;42800;53.928;27.662;2022-11-27T02:09:59;100452.28;;;-0.43;100.00
56912;BME280;42800;53.928;27.662;2022-11-27T02:12:29;100456.88;;;-0.38;100.00
56912;BME280;42800;53.928;27.662;2022-11-27T02:15:04;100462.53;;;-0.40;100.00
56912;BME280;42800;53.928;27.662;2022-11-27T02:17:39;100469.03;;;-0.31;100.00
56912;BME280;42800;53.928;27.662;2022-11-27T02:20:23;100457.97;;;-0.39;100.00
56912;BME280;42800;53.928;27.662;2022-11-27T02:23:09;100466.03;;;-0.39;100.00
56912;BME280;42800;53.928;27.662;2022-11-27T02:25:48;100462.69;;;-0.94;100.00
56912;BME280;42800;53.928;27.662;2022-11-27T02:28:28;100534.34;;;-0.56;100.00
56912;BME280;42800;53.928;27.662;2022-11-27T02:31:04;100531.59;;;-0.61;100.00
56912;BME280;42800;53.928;27.662;2022-11-27T02:33:36;100522.56;;;-0.44;100.00
56912;BME280;42800;53.928;27.662;2022-11-27T02:36:09;100512.97;;;-0.30;100.00
56912;BME280;42800;53.928;27.662;2022-11-27T02:38:38;100508.44;;;-0.25;100.00
56912;BME280;42800;53.928;27.662;2022-11-27T02:41:10;100499.25;;;-0.29;100.00
56912;BME280;42800;53.928;27.662;2022-11-27T02:43:40;100497.38;;;-0.28;100.00
56912;BME280;42800;53.928;27.662;2022-11-27T02:46:11;100492.19;;;-0.35;100.00
56912;BME280;42800;53.928;27.662;2022-11-27T02:48:42;100496.19;;;-0.42;100.00
56912;BME280;42800;53.928;27.662;2022-11-27T02:51:11;100490.81;;;-0.42;100.00
56912;BME280;42800;53.928;27.662;2022-11-27T02:53:43;100481.06;;;-0.49;100.00
56912;BME280;42800;53.928;27.662;2022-11-27T02:56:15;100490.75;;;-0.48;100.00
56912;BME280;42800;53.928;27.662;2022-11-27T02:58:45;100494.84;;;-0.45;100.00
56912;BME280;42800;53.928;27.662;2022-11-27T03:01:14;100510.78;;;-0.38;100.00
56912;BME280;42800;53.928;27.662;2022-11-27T03:03:45;100502.91;;;-0.45;100.00
56912;BME280;42800;53.928;27.662;2022-11-27T03:06:18;100523.16;;;-0.75;100.00
56912;BME280;42800;53.928;27.662;2022-11-27T03:08:49;100538.50;;;-0.43;100.00
56912;BME280;42800;53.928;27.662;2022-11-27T03:11:17;100541.00;;;-0.63;100.00
56912;BME280;42800;53.928;27.662;2022-11-27T03:13:46;100546.81;;;-0.44;100.00
56912;BME280;42800;53.928;27.662;2022-11-27T03:16:19;100538.22;;;-0.41;100.00
56912;BME280;42800;53.928;27.662;2022-11-27T03:18:55;100538.78;;;-0.39;100.00
56912;BME280;42800;53.928;27.662;2022-11-27T03:21:27;100531.97;;;-0.47;100.00
56912;BME280;42800;53.928;27.662;2022-11-27T03:23:56;100531.66;;;-0.56;100.00
56912;BME280;42800;53.928;27.662;2022-11-27T03:26:23;100535.47;;;-0.52;100.00
56912;BME280;42800;53.928;27.662;2022-11-27T03:28:51;100527.09;;;-0.55;100.00
56912;BME280;42800;53.928;27.662;2022-11-27T03:31:19;100534.72;;;-0.42;100.00
56912;BME280;42800;53.928;27.662;2022-11-27T03:33:47;100539.31;;;-0.42;100.00
56912;BME280;42800;53.928;27.662;2022-11-27T03:36:16;100534.97;;;-0.43;100.00
56912;BME280;42800;53.928;27.662;2022-11-27T03:38:44;100511.59;;;-0.70;100.00
56912;BME280;42800;53.928;27.662;2022-11-27T03:41:16;100516.50;;;-0.94;100.00
56912;BME280;42800;53.928;27.662;2022-11-27T03:43:50;100526.72;;;-0.69;100.00
56912;BME280;42800;53.928;27.662;2022-11-27T03:46:25;100516.38;;;-0.77;100.00
56912;BME280;42800;53.928;27.662;2022-11-27T03:48:58;100529.41;;;-0.69;100.00
56912;BME280;42800;53.928;27.662;2022-11-27T03:51:33;100540.13;;;-0.74;100.00
56912;BME280;42800;53.928;27.662;2022-11-27T03:54:10;100539.09;;;-0.68;100.00
56912;BME280;42800;53.928;27.662;2022-11-27T03:56:41;100533.72;;;-0.68;100.00
56912;BME280;42800;53.928;27.662;2022-11-27T03:59:13;100517.81;;;-1.02;100.00
56912;BME280;42800;53.928;27.662;2022-11-27T04:01:41;100547.50;;;-0.91;100.00
56912;BME280;42800;53.928;27.662;2022-11-27T04:04:08;100555.84;;;-0.93;100.00
56912;BME280;42800;53.928;27.662;2022-11-27T04:06:34;100571.72;;;-1.19;100.00
56912;BME280;42800;53.928;27.662;2022-11-27T04:09:00;100597.06;;;-1.14;100.00
56912;BME280;42800;53.928;27.662;2022-11-27T04:11:27;100615.13;;;-0.88;100.00
56912;BME280;42800;53.928;27.662;2022-11-27T04:13:53;100612.41;;;-0.88;100.00
56912;BME280;42800;53.928;27.662;2022-11-27T04:16:19;100611.41;;;-0.82;100.00
56912;BME280;42800;53.928;27.662;2022-11-27T04:18:46;100601.75;;;-0.78;100.00
56912;BME280;42800;53.928;27.662;2022-11-27T04:21:12;100603.53;;;-0.88;100.00
56912;BME280;42800;53.928;27.662;2022-11-27T04:23:39;100599.34;;;-0.74;100.00
56912;BME280;42800;53.928;27.662;2022-11-27T04:26:05;100587.53;;;-0.73;100.00
56912;BME280;42800;53.928;27.662;2022-11-27T04:28:32;100575.22;;;-0.64;100.00
56912;BME280;42800;53.928;27.662;2022-11-27T04:30:58;100565.63;;;-0.82;100.00
56912;BME280;42800;53.928;27.662;2022-11-27T04:33:24;100569.66;;;-0.84;100.00
56912;BME280;42800;53.928;27.662;2022-11-27T04:35:51;100579.13;;;-1.04;100.00
56912;BME280;42800;53.928;27.662;2022-11-27T04:38:18;100593.13;;;-0.80;100.00
56912;BME280;42800;53.928;27.662;2022-11-27T04:40:45;100592.94;;;-0.73;100.00
56912;BME280;42800;53.928;27.662;2022-11-27T04:43:11;100584.22;;;-0.80;100.00
56912;BME280;42800;53.928;27.662;2022-11-27T04:45:38;100580.38;;;-0.89;100.00
56912;BME280;42800;53.928;27.662;2022-11-27T04:48:05;100586.56;;;-0.89;100.00
56912;BME280;42800;53.928;27.662;2022-11-27T04:50:31;100585.97;;;-0.96;100.00
56912;BME280;42800;53.928;27.662;2022-11-27T04:52:58;100591.16;;;-0.89;100.00
56912;BME280;42800;53.928;27.662;2022-11-27T04:55:25;100587.16;;;-1.09;100.00
56912;BME280;42800;53.928;27.662;2022-11-27T04:57:51;100603.16;;;-0.97;100.00
56912;BME280;42800;53.928;27.662;2022-11-27T05:00:19;100611.63;;;-0.88;100.00
56912;BME280;42800;53.928;27.662;2022-11-27T05:02:45;100596.47;;;-0.95;100.00
56912;BME280;42800;53.928;27.662;2022-11-27T05:05:12;100589.06;;;-0.82;100.00
56912;BME280;42800;53.928;27.662;2022-11-27T05:07:38;100575.91;;;-0.79;100.00
56912;BME280;42800;53.928;27.662;2022-11-27T05:10:06;100571.31;;;-0.78;100.00
56912;BME280;42800;53.928;27.662;2022-11-27T05:12:33;100578.91;;;-0.75;100.00
56912;BME280;42800;53.928;27.662;2022-11-27T05:14:59;100576.78;;;-0.73;100.00
56912;BME280;42800;53.928;27.662;2022-11-27T05:17:25;100584.88;;;-0.68;100.00
56912;BME280;42800;53.928;27.662;2022-11-27T05:19:52;100584.84;;;-0.73;100.00
56912;BME280;42800;53.928;27.662;2022-11-27T05:22:18;100592.19;;;-0.63;100.00
56912;BME280;42800;53.928;27.662;2022-11-27T05:24:45;100590.06;;;-0.61;100.00
56912;BME280;42800;53.928;27.662;2022-11-27T05:27:12;100586.59;;;-0.84;100.00
56912;BME280;42800;53.928;27.662;2022-11-27T05:29:38;100596.84;;;-0.86;100.00
56912;BME280;42800;53.928;27.662;2022-11-27T05:32:04;100598.81;;;-0.76;100.00
56912;BME280;42800;53.928;27.662;2022-11-27T05:34:31;100592.88;;;-0.78;100.00
56912;BME280;42800;53.928;27.662;2022-11-27T05:36:57;100591.59;;;-0.71;100.00
56912;BME280;42800;53.928;27.662;2022-11-27T05:39:23;100574.69;;;-0.66;100.00
56912;BME280;42800;53.928;27.662;2022-11-27T05:41:50;100561.84;;;-0.86;100.00
56912;BME280;42800;53.928;27.662;2022-11-27T05:44:17;100583.28;;;-0.96;100.00
56912;BME280;42800;53.928;27.662;2022-11-27T05:46:43;100573.31;;;-0.96;100.00
56912;BME280;42800;53.928;27.662;2022-11-27T05:49:11;100566.34;;;-0.91;100.00
56912;BME280;42800;53.928;27.662;2022-11-27T05:51:38;100572.81;;;-0.92;100.00
56912;BME280;42800;53.928;27.662;2022-11-27T05:54:04;100581.44;;;-0.90;100.00
56912;BME280;42800;53.928;27.662;2022-11-27T05:56:31;100595.06;;;-1.02;100.00
56912;BME280;42800;53.928;27.662;2022-11-27T05:58:57;100617.78;;;-0.93;100.00
56912;BME280;42800;53.928;27.662;2022-11-27T06:01:24;100629.28;;;-0.98;100.00
56912;BME280;42800;53.928;27.662;2022-11-27T06:03:50;100641.84;;;-0.81;100.00
56912;BME280;42800;53.928;27.662;2022-11-27T06:06:18;100623.81;;;-0.81;100.00
56912;BME280;42800;53.928;27.662;2022-11-27T06:08:46;100628.47;;;-0.71;100.00
56912;BME280;42800;53.928;27.662;2022-11-27T06:11:14;100625.19;;;-0.78;100.00
56912;BME280;42800;53.928;27.662;2022-11-27T06:13:41;100628.69;;;-0.78;100.00
56912;BME280;42800;53.928;27.662;2022-11-27T06:16:10;100620.56;;;-0.83;100.00
56912;BME280;42800;53.928;27.662;2022-11-27T06:18:38;100599.44;;;-0.96;100.00
56912;BME280;42800;53.928;27.662;2022-11-27T06:21:06;100601.06;;;-1.17;100.00
56912;BME280;42800;53.928;27.662;2022-11-27T06:23:33;100629.75;;;-1.06;100.00
56912;BME280;42800;53.928;27.662;2022-11-27T06:26:11;100640.41;;;-0.89;100.00
56912;BME280;42800;53.928;27.662;2022-11-27T06:28:38;100645.53;;;-0.87;100.00
56912;BME280;42800;53.928;27.662;2022-11-27T06:31:06;100642.44;;;-1.01;100.00
56912;BME280;42800;53.928;27.662;2022-11-27T06:33:33;100659.38;;;-0.79;100.00
56912;BME280;42800;53.928;27.662;2022-11-27T06:36:00;100655.91;;;-0.74;100.00
56912;BME280;42800;53.928;27.662;2022-11-27T06:38:27;100658.09;;;-0.71;100.00
56912;BME280;42800;53.928;27.662;2022-11-27T06:40:53;100647.13;;;-0.91;100.00
56912;BME280;42800;53.928;27.662;2022-11-27T06:43:20;100648.44;;;-0.94;100.00
56912;BME280;42800;53.928;27.662;2022-11-27T06:45:54;100652.75;;;-0.93;100.00
56912;BME280;42800;53.928;27.662;2022-11-27T06:48:20;100652.06;;;-0.83;100.00
56912;BME280;42800;53.928;27.662;2022-11-27T06:50:47;100638.06;;;-1.29;100.00
56912;BME280;42800;53.928;27.662;2022-11-27T06:53:14;100660.13;;;-1.27;100.00
56912;BME280;42800;53.928;27.662;2022-11-27T06:55:40;100671.09;;;-1.12;100.00
56912;BME280;42800;53.928;27.662;2022-11-27T06:58:06;100685.13;;;-0.88;100.00
56912;BME280;42800;53.928;27.662;2022-11-27T07:00:33;100676.50;;;-0.90;100.00
56912;BME280;42800;53.928;27.662;2022-11-27T07:02:59;100680.81;;;-1.33;100.00
56912;BME280;42800;53.928;27.662;2022-11-27T07:05:25;100698.59;;;-1.10;100.00
56912;BME280;42800;53.928;27.662;2022-11-27T07:07:51;100705.16;;;-0.79;100.00
56912;BME280;42800;53.928;27.662;2022-11-27T07:10:18;100686.34;;;-0.74;100.00
56912;BME280;42800;53.928;27.662;2022-11-27T07:12:45;100680.97;;;-0.74;100.00
56912;BME280;42800;53.928;27.662;2022-11-27T07:15:11;100668.53;;;-0.80;100.00
56912;BME280;42800;53.928;27.662;2022-11-27T07:17:37;100661.50;;;-0.81;100.00
56912;BME280;42800;53.928;27.662;2022-11-27T07:20:05;100670.44;;;-0.75;100.00
56912;BME280;42800;53.928;27.662;2022-11-27T07:22:31;100658.28;;;-0.56;100.00
56912;BME280;42800;53.928;27.662;2022-11-27T07:24:58;100644.69;;;-0.66;100.00
56912;BME280;42800;53.928;27.662;2022-11-27T07:27:24;100632.25;;;-0.72;100.00
56912;BME280;42800;53.928;27.662;2022-11-27T07:29:51;100611.09;;;-1.12;100.00
56912;BME280;42800;53.928;27.662;2022-11-27T07:32:18;100645.94;;;-1.01;100.00
56912;BME280;42800;53.928;27.662;2022-11-27T07:34:44;100654.88;;;-0.95;100.00
56912;BME280;42800;53.928;27.662;2022-11-27T07:37:10;100665.09;;;-0.70;100.00
56912;BME280;42800;53.928;27.662;2022-11-27T07:39:36;100654.47;;;-0.60;100.00
56912;BME280;42800;53.928;27.662;2022-11-27T07:42:03;100640.72;;;-0.85;100.00
56912;BME280;42800;53.928;27.662;2022-11-27T07:44:30;100651.19;;;-0.89;100.00
56912;BME280;42800;53.928;27.662;2022-11-27T07:46:56;100636.31;;;-0.97;100.00
56912;BME280;42800;53.928;27.662;2022-11-27T07:49:22;100657.19;;;-0.82;100.00
56912;BME280;42800;53.928;27.662;2022-11-27T07:51:49;100646.44;;;-1.04;100.00
56912;BME280;42800;53.928;27.662;2022-11-27T07:54:15;100664.06;;;-0.91;100.00
56912;BME280;42800;53.928;27.662;2022-11-27T07:56:41;100678.47;;;-0.80;100.00
56912;BME280;42800;53.928;27.662;2022-11-27T07:59:07;100684.69;;;-0.80;100.00
56912;BME280;42800;53.928;27.662;2022-11-27T08:01:34;100690.19;;;-0.69;100.00
56912;BME280;42800;53.928;27.662;2022-11-27T08:04:01;100688.44;;;-0.81;100.00
56912;BME280;42800;53.928;27.662;2022-11-27T08:06:27;100693.78;;;-0.59;100.00
56912;BME280;42800;53.928;27.662;2022-11-27T08:08:53;100676.56;;;-0.58;100.00
56912;BME280;42800;53.928;27.662;2022-11-27T08:11:23;100676.25;;;-0.61;100.00
56912;BME280;42800;53.928;27.662;2022-11-27T08:13:53;100673.44;;;-0.72;100.00
56912;BME280;42800;53.928;27.662;2022-11-27T08:16:22;100665.56;;;-0.78;100.00
56912;BME280;42800;53.928;27.662;2022-11-27T08:18:49;100660.56;;;-0.69;100.00
56912;BME280;42800;53.928;27.662;2022-11-27T08:21:15;100664.19;;;-0.54;100.00
56912;BME280;42800;53.928;27.662;2022-11-27T08:23:41;100650.38;;;-0.62;100.00
56912;BME280;42800;53.928;27.662;2022-11-27T08:26:08;100632.03;;;-1.14;100.00
56912;BME280;42800;53.928;27.662;2022-11-27T08:28:35;100661.78;;;-1.26;100.00
56912;BME280;42800;53.928;27.662;2022-11-27T08:31:03;100671.03;;;-1.17;100.00
56912;BME280;42800;53.928;27.662;2022-11-27T08:33:33;100669.50;;;-1.13;100.00
56912;BME280;42800;53.928;27.662;2022-11-27T08:36:00;100687.56;;;-1.08;100.00
56912;BME280;42800;53.928;27.662;2022-11-27T08:38:26;100703.03;;;-0.99;100.00
56912;BME280;42800;53.928;27.662;2022-11-27T08:40:54;100714.91;;;-0.95;100.00
56912;BME280;42800;53.928;27.662;2022-11-27T08:43:20;100717.22;;;-0.81;100.00
56912;BME280;42800;53.928;27.662;2022-11-27T08:45:46;100728.28;;;-0.83;100.00
56912;BME280;42800;53.928;27.662;2022-11-27T08:48:13;100725.16;;;-0.97;100.00
56912;BME280;42800;53.928;27.662;2022-11-27T08:50:39;100732.78;;;-0.88;100.00
56912;BME280;42800;53.928;27.662;2022-11-27T08:53:06;100723.44;;;-1.03;100.00
56912;BME280;42800;53.928;27.662;2022-11-27T08:55:32;100712.41;;;-1.23;100.00
56912;BME280;42800;53.928;27.662;2022-11-27T08:57:59;100728.69;;;-1.13;100.00
56912;BME280;42800;53.928;27.662;2022-11-27T09:00:25;100740.72;;;-0.99;100.00
56912;BME280;42800;53.928;27.662;2022-11-27T09:02:51;100735.34;;;-0.99;100.00
56912;BME280;42800;53.928;27.662;2022-11-27T09:05:17;100735.66;;;-0.73;100.00
56912;BME280;42800;53.928;27.662;2022-11-27T09:07:44;100728.69;;;-0.69;100.00
56912;BME280;42800;53.928;27.662;2022-11-27T09:10:11;100715.84;;;-0.62;100.00
56912;BME280;42800;53.928;27.662;2022-11-27T09:12:37;100698.66;;;-0.83;100.00
56912;BME280;42800;53.928;27.662;2022-11-27T09:15:04;100688.50;;;-0.98;100.00
56912;BME280;42800;53.928;27.662;2022-11-27T09:17:31;100700.97;;;-0.69;100.00
56912;BME280;42800;53.928;27.662;2022-11-27T09:19:57;100700.91;;;-1.19;100.00
56912;BME280;42800;53.928;27.662;2022-11-27T09:22:23;100704.53;;;-1.08;100.00
56912;BME280;42800;53.928;27.662;2022-11-27T09:24:50;100705.47;;;-1.19;100.00
56912;BME280;42800;53.928;27.662;2022-11-27T09:27:17;100715.88;;;-1.06;100.00
56912;BME280;42800;53.928;27.662;2022-11-27T09:29:43;100714.66;;;-1.15;100.00
56912;BME280;42800;53.928;27.662;2022-11-27T09:32:09;100729.50;;;-0.90;100.00
56912;BME280;42800;53.928;27.662;2022-11-27T09:34:35;100712.66;;;-0.81;100.00
56912;BME280;42800;53.928;27.662;2022-11-27T09:37:03;100716.50;;;-0.99;100.00
56912;BME280;42800;53.928;27.662;2022-11-27T09:39:29;100692.56;;;-0.95;100.00
56912;BME280;42800;53.928;27.662;2022-11-27T09:41:59;100685.41;;;-0.62;100.00
56912;BME280;42800;53.928;27.662;2022-11-27T09:44:32;100658.81;;;-0.54;100.00
56912;BME280;42800;53.928;27.662;2022-11-27T09:47:08;100637.44;;;-0.65;100.00
56912;BME280;42800;53.928;27.662;2022-11-27T09:49:41;100624.31;;;-0.57;100.00
56912;BME280;42800;53.928;27.662;2022-11-27T09:52:14;100625.66;;;-0.59;100.00
56912;BME280;42800;53.928;27.662;2022-11-27T09:54:43;100614.09;;;-0.55;100.00
56912;BME280;42800;53.928;27.662;2022-11-27T09:57:15;100616.28;;;-0.52;100.00
56912;BME280;42800;53.928;27.662;2022-11-27T09:59:45;100598.78;;;-0.49;100.00
56912;BME280;42800;53.928;27.662;2022-11-27T10:02:15;100585.28;;;-0.54;100.00
56912;BME280;42800;53.928;27.662;2022-11-27T10:04:43;100576.81;;;-0.36;100.00
56912;BME280;42800;53.928;27.662;2022-11-27T10:07:17;100560.06;;;-0.38;100.00
56912;BME280;42800;53.928;27.662;2022-11-27T10:10:07;100537.16;;;-0.40;100.00
56912;BME280;42800;53.928;27.662;2022-11-27T10:12:46;100516.91;;;-0.80;100.00
56912;BME280;42800;53.928;27.662;2022-11-27T10:15:18;100548.22;;;-1.01;100.00
56912;BME280;42800;53.928;27.662;2022-11-27T10:17:57;100580.78;;;-0.76;100.00
56912;BME280;42800;53.928;27.662;2022-11-27T10:20:31;100571.84;;;-1.30;100.00
56912;BME280;42800;53.928;27.662;2022-11-27T10:23:03;100605.38;;;-1.82;100.00
56912;BME280;42800;53.928;27.662;2022-11-27T10:25:37;100667.22;;;-1.21;100.00
56912;BME280;42800;53.928;27.662;2022-11-27T10:28:25;100657.84;;;-0.97;100.00
56912;BME280;42800;53.928;27.662;2022-11-27T10:30:59;100626.34;;;-0.69;100.00
56912;BME280;42800;53.928;27.662;2022-11-27T10:33:35;100591.38;;;-0.64;100.00
56912;BME280;42800;53.928;27.662;2022-11-27T10:36:06;100572.69;;;-0.76;100.00
56912;BME280;42800;53.928;27.662;2022-11-27T10:38:38;100565.94;;;-0.78;100.00
56912;BME280;42800;53.928;27.662;2022-11-27T10:41:11;100537.03;;;-0.88;100.00
56912;BME280;42800;53.928;27.662;2022-11-27T10:43:39;100529.81;;;-0.50;100.00
56912;BME280;42800;53.928;27.662;2022-11-27T10:46:11;100503.19;;;-0.79;100.00
56912;BME280;42800;53.928;27.662;2022-11-27T10:48:39;100507.47;;;-0.83;100.00
56912;BME280;42800;53.928;27.662;2022-11-27T10:51:12;100540.81;;;-1.16;100.00
56912;BME280;42800;53.928;27.662;2022-11-27T10:53:41;100589.31;;;-0.84;100.00
56912;BME280;42800;53.928;27.662;2022-11-27T10:56:39;100591.69;;;-0.87;100.00
56912;BME280;42800;53.928;27.662;2022-11-27T10:59:11;100555.81;;;-0.66;100.00
56912;BME280;42800;53.928;27.662;2022-11-27T11:01:44;100528.16;;;-0.56;100.00
56912;BME280;42800;53.928;27.662;2022-11-27T11:04:12;100503.22;;;-0.74;100.00
56912;BME280;42800;53.928;27.662;2022-11-27T11:06:41;100490.38;;;-0.66;100.00
56912;BME280;42800;53.928;27.662;2022-11-27T11:09:14;100478.09;;;-0.47;100.00
56912;BME280;42800;53.928;27.662;2022-11-27T11:11:41;100457.13;;;-0.45;100.00
56912;BME280;42800;53.928;27.662;2022-11-27T11:14:15;100438.97;;;-0.97;100.00
56912;BME280;42800;53.928;27.662;2022-11-27T11:16:42;100493.22;;;-0.83;100.00
56912;BME280;42800;53.928;27.662;2022-11-27T11:19:21;100506.16;;;-1.34;100.00
56912;BME280;42800;53.928;27.662;2022-11-27T11:21:48;100573.25;;;-1.01;100.00
56912;BME280;42800;53.928;27.662;2022-11-27T11:24:20;100589.59;;;-0.80;100.00
56912;BME280;42800;53.928;27.662;2022-11-27T11:26:50;100575.03;;;-0.84;100.00
56912;BME280;42800;53.928;27.662;2022-11-27T11:29:27;100579.91;;;-1.30;100.00
56912;BME280;42800;53.928;27.662;2022-11-27T11:31:57;100622.78;;;-1.24;100.00
56912;BME280;42800;53.928;27.662;2022-11-27T11:34:29;100646.63;;;-0.88;100.00
56912;BME280;42800;53.928;27.662;2022-11-27T11:36:57;100635.38;;;-0.80;100.00
56912;BME280;42800;53.928;27.662;2022-11-27T11:39:25;100638.53;;;-0.88;100.00
56912;BME280;42800;53.928;27.662;2022-11-27T11:41:53;100630.94;;;-0.97;100.00
56912;BME280;42800;53.928;27.662;2022-11-27T11:44:22;100629.28;;;-0.71;100.00
56912;BME280;42800;53.928;27.662;2022-11-27T11:46:52;100611.00;;;-0.68;100.00
56912;BME280;42800;53.928;27.662;2022-11-27T11:49:22;100589.19;;;-0.67;100.00
56912;BME280;42800;53.928;27.662;2022-11-27T11:54:54;100568.41;;;-0.72;100.00
56912;BME280;42800;53.928;27.662;2022-11-27T11:57:36;100566.09;;;-0.63;100.00
56912;BME280;42800;53.928;27.662;2022-11-27T12:00:08;100541.28;;;-0.65;100.00
56912;BME280;42800;53.928;27.662;2022-11-27T12:02:47;100530.56;;;-0.60;100.00
56912;BME280;42800;53.928;27.662;2022-11-27T12:05:33;100522.47;;;-0.60;100.00
56912;BME280;42800;53.928;27.662;2022-11-27T12:08:20;100498.69;;;-0.68;100.00
56912;BME280;42800;53.928;27.662;2022-11-27T12:10:57;100468.75;;;-0.77;100.00
56912;BME280;42800;53.928;27.662;2022-11-27T12:13:38;100503.66;;;-0.87;100.00
56912;BME280;42800;53.928;27.662;2022-11-27T12:16:15;100507.94;;;-0.59;100.00
56912;BME280;42800;53.928;27.662;2022-11-27T12:18:55;100499.63;;;-0.52;100.00
56912;BME280;42800;53.928;27.662;2022-11-27T12:21:37;100494.25;;;-0.52;100.00
56912;BME280;42800;53.928;27.662;2022-11-27T12:24:18;100486.03;;;-0.73;100.00
56912;BME280;42800;53.928;27.662;2022-11-27T12:27:00;100520.94;;;-0.83;100.00
56912;BME280;42800;53.928;27.662;2022-11-27T12:29:42;100508.59;;;-1.60;100.00
56912;BME280;42800;53.928;27.662;2022-11-27T12:32:26;100607.47;;;-1.23;100.00
56912;BME280;42800;53.928;27.662;2022-11-27T12:35:01;100620.22;;;-1.13;100.00
56912;BME280;42800;53.928;27.662;2022-11-27T12:37:39;100619.28;;;-1.02;100.00
56912;BME280;42800;53.928;27.662;2022-11-27T12:40:23;100636.13;;;-1.12;100.00
56912;BME280;42800;53.928;27.662;2022-11-27T12:42:59;100620.72;;;-1.38;100.00
56912;BME280;42800;53.928;27.662;2022-11-27T12:45:34;100626.75;;;-1.09;100.00